Seven Sins — ZCOD6 — position and weather

sailwx.info

Track history (hours):
 
Tides and Currents Weather Stations Pressure Air Temp Water Temp Dewpoint Dewpoint Depression Visibility Wind Speed Wind Dir Waves Ship Positions

Seven Sins

Last reported at 2014-Aug-17 10:23 UTC. Time now 2014-Sep-01 19:02 UTC.
Position N 38°10' E 013°35'.
Warning: this ship's position is 15 days out of date.

Length 43 m; draft 3.1 m.

Type: Pleasure craft. MMSI: 319425000.

Date/timePositionNaut miles runAvg speedWind from/ knotsBaromVisibWave heightAir tempDewpointWater temp
2014-Aug-17 10:23N 38°10' E 013°35'810.2
2014-Aug-17 09:33N 38°09' E 013°24'2 1.6
2014-Aug-17 08:33N 38°09' E 013°22'0 0.0
2014-Aug-17 07:33N 38°09' E 013°22'0 0.0
2014-Aug-17 06:33N 38°09' E 013°22'0 0.0
2014-Aug-17 05:33N 38°09' E 013°22'0 0.2
2014-Aug-17 04:34N 38°09' E 013°22'9 8.6
2014-Aug-17 03:33N 38°12' E 013°33'  
2014-Aug-13 18:32N 40°30' E 014°16'3 2.5
2014-Aug-13 17:19N 40°33' E 014°14'0 0.0
2014-Aug-13 15:25N 40°33' E 014°14'2 0.4
2014-Aug-13 11:28N 40°34' E 014°13'1 1.4
2014-Aug-13 10:33N 40°33' E 014°15'0 0.0
2014-Aug-12 20:03N 40°33' E 014°15'0 0.0
2014-Aug-12 19:33N 40°33' E 014°15'17 3.4
2014-Aug-12 14:24N 40°50' E 014°07'3 3.2
2014-Aug-12 13:22N 40°46' E 014°06'10 9.1
2014-Aug-12 12:17N 40°46' E 013°53'0 0.1
2014-Aug-12 11:33N 40°46' E 013°53'0 0.0
2014-Aug-12 10:33N 40°46' E 013°53'0 0.3
2014-Aug-12 09:10N 40°46' E 013°53'29 1.9
2014-Aug-11 17:33N 40°37' E 014°30'6 2.1
2014-Aug-11 14:28N 40°35' E 014°22'1 0.2
2014-Aug-11 12:11N 40°35' E 014°22'0 0.0
2014-Aug-11 11:32N 40°35' E 014°22'0 0.0
2014-Aug-11 10:32N 40°35' E 014°22'5 2.1
2014-Aug-11 08:17N 40°35' E 014°15'2210.2
2014-Aug-11 06:07N 40°40' E 013°47'610.1
2014-Aug-11 05:34N 40°41' E 013°40'34 3.7
2014-Aug-10 20:23N 40°54' E 012°58'0 0.0
2014-Aug-10 19:28N 40°54' E 012°58'69 4.2
2014-Aug-10 03:16N 40°59' E 011°27'910.4
2014-Aug-10 02:27N 40°60' E 011°16'4010.3
2014-Aug-09 22:32N 41°03' E 010°23'3610.7
2014-Aug-09 19:08N 41°05' E 009°34'  
Track history (hours):
 
Tides and Currents Weather Stations Pressure Air Temp Water Temp Dewpoint Dewpoint Depression Visibility Wind Speed Wind Dir Waves Ship Positions

Seven Sins

Last reported at 2014-Aug-17 10:23 UTC. Time now 2014-Sep-01 19:02 UTC.
Position N 38°10' E 013°35'.
Warning: this ship's position is 15 days out of date.

Length 43 m; draft 3.1 m.

Type: Pleasure craft. MMSI: 319425000.

Date/timePositionNaut miles runAvg speedWind from/ knotsBaromVisibWave heightAir tempDewpointWater temp
2014-Aug-17 10:23N 38°10' E 013°35'810.2
2014-Aug-17 09:33N 38°09' E 013°24'2 1.6
2014-Aug-17 08:33N 38°09' E 013°22'0 0.0
2014-Aug-17 07:33N 38°09' E 013°22'0 0.0
2014-Aug-17 06:33N 38°09' E 013°22'0 0.0
2014-Aug-17 05:33N 38°09' E 013°22'0 0.2
2014-Aug-17 04:34N 38°09' E 013°22'9 8.6
2014-Aug-17 03:33N 38°12' E 013°33'  
2014-Aug-13 18:32N 40°30' E 014°16'3 2.5
2014-Aug-13 17:19N 40°33' E 014°14'0 0.0
2014-Aug-13 15:25N 40°33' E 014°14'2 0.4
2014-Aug-13 11:28N 40°34' E 014°13'1 1.4
2014-Aug-13 10:33N 40°33' E 014°15'0 0.0
2014-Aug-12 20:03N 40°33' E 014°15'0 0.0
2014-Aug-12 19:33N 40°33' E 014°15'17 3.4
2014-Aug-12 14:24N 40°50' E 014°07'3 3.2
2014-Aug-12 13:22N 40°46' E 014°06'10 9.1
2014-Aug-12 12:17N 40°46' E 013°53'0 0.1
2014-Aug-12 11:33N 40°46' E 013°53'0 0.0
2014-Aug-12 10:33N 40°46' E 013°53'0 0.3
2014-Aug-12 09:10N 40°46' E 013°53'29 1.9
2014-Aug-11 17:33N 40°37' E 014°30'6 2.1
2014-Aug-11 14:28N 40°35' E 014°22'1 0.2
2014-Aug-11 12:11N 40°35' E 014°22'0 0.0
2014-Aug-11 11:32N 40°35' E 014°22'0 0.0
2014-Aug-11 10:32N 40°35' E 014°22'5 2.1
2014-Aug-11 08:17N 40°35' E 014°15'2210.2
2014-Aug-11 06:07N 40°40' E 013°47'610.1
2014-Aug-11 05:34N 40°41' E 013°40'34 3.7
2014-Aug-10 20:23N 40°54' E 012°58'0 0.0
2014-Aug-10 19:28N 40°54' E 012°58'69 4.2
2014-Aug-10 03:16N 40°59' E 011°27'910.4
2014-Aug-10 02:27N 40°60' E 011°16'4010.3
2014-Aug-09 22:32N 41°03' E 010°23'3610.7
2014-Aug-09 19:08N 41°05' E 009°34'  

Dump ship's entire track history